createdAt,value
2024-01-15T00:02:07.124Z,97968.28
2024-01-15T00:04:40.426Z,97954.94
2024-01-15T00:07:16.700Z,97959.72
2024-01-15T00:09:49.645Z,97945.31
2024-01-15T00:12:22.524Z,97939.34
2024-01-15T00:14:55.796Z,97954.81
2024-01-15T00:17:28.721Z,97959.06
2024-01-15T00:20:01.608Z,97943.59
2024-01-15T00:22:36.688Z,97932.66
2024-01-15T00:25:10.128Z,97926.50
2024-01-15T00:27:43.188Z,97939.19
2024-01-15T00:30:16.413Z,97946.50
2024-01-15T00:32:49.374Z,97928.94
2024-01-15T00:35:22.298Z,97930.28
2024-01-15T00:37:56.523Z,97926.44
2024-01-15T00:40:29.465Z,97918.41
2024-01-15T00:43:03.254Z,97917.50
2024-01-15T00:45:36.248Z,97904.13
2024-01-15T00:48:09.833Z,97914.06
2024-01-15T00:50:42.735Z,97923.06
2024-01-15T00:53:16.937Z,97919.91
2024-01-15T00:55:49.859Z,97922.75
2024-01-15T00:58:22.734Z,97910.56
2024-01-15T01:00:56.369Z,97906.69
2024-01-15T01:03:29.631Z,97893.81
2024-01-15T01:06:02.620Z,97893.44
2024-01-15T01:08:37.022Z,97899.53
2024-01-15T01:11:10.845Z,97904.69
2024-01-15T01:13:43.973Z,97894.66
2024-01-15T01:16:16.921Z,97903.88
2024-01-15T01:18:50.016Z,97892.75
2024-01-15T01:21:23.253Z,97892.72
2024-01-15T01:23:57.526Z,97894.81
2024-01-15T01:26:30.720Z,97891.34
2024-01-15T01:29:03.626Z,97899.53
2024-01-15T01:31:36.588Z,97906.47
2024-01-15T01:34:09.581Z,97900.91
2024-01-15T01:36:42.483Z,97897.25
2024-01-15T01:39:16.754Z,97905.72
2024-01-15T01:41:52.421Z,97904.38
2024-01-15T01:44:25.377Z,97903.56
2024-01-15T01:46:59.067Z,97895.59
2024-01-15T01:49:32.376Z,97891.78
2024-01-15T01:52:08.206Z,97901.00
2024-01-15T01:54:44.777Z,97894.66
2024-01-15T01:57:20.315Z,97896.91
2024-01-15T01:59:53.776Z,97897.34
2024-01-15T02:02:27.515Z,97890.06
2024-01-15T02:05:00.529Z,97903.56
2024-01-15T02:07:34.627Z,97904.28
2024-01-15T02:10:09.478Z,97896.75
2024-01-15T02:12:42.940Z,97902.38
2024-01-15T02:15:16.071Z,97903.38
2024-01-15T02:18:03.024Z,97891.09
2024-01-15T02:20:36.661Z,97887.81
2024-01-15T02:23:15.701Z,97896.84
2024-01-15T02:25:49.296Z,97882.22
2024-01-15T02:28:22.299Z,97889.41
2024-01-15T02:30:55.293Z,97891.72
2024-01-15T02:33:28.425Z,97888.13
2024-01-15T02:36:01.360Z,97906.56
2024-01-15T02:38:35.561Z,97895.69
2024-01-15T02:41:08.561Z,97903.63
2024-01-15T02:43:41.394Z,97892.19
2024-01-15T02:46:14.492Z,97891.94
2024-01-15T02:48:47.551Z,97889.88
2024-01-15T02:51:20.672Z,97898.47
2024-01-15T02:53:54.946Z,97902.72
2024-01-15T02:56:27.910Z,97891.72
2024-01-15T02:59:01.118Z,97881.66
2024-01-15T03:01:34.284Z,97882.72
2024-01-15T03:04:07.502Z,97878.88
2024-01-15T03:06:40.421Z,97878.13
2024-01-15T03:09:14.762Z,97882.16
2024-01-15T03:11:47.962Z,97880.53
2024-01-15T03:14:21.482Z,97886.81
2024-01-15T03:16:54.466Z,97885.69
2024-01-15T03:19:27.345Z,97876.34
2024-01-15T03:22:01.826Z,97877.69
2024-01-15T03:24:36.042Z,97874.88
2024-01-15T03:27:09.088Z,97878.03
2024-01-15T03:29:42.274Z,97875.00
2024-01-15T03:32:17.065Z,97880.09
2024-01-15T03:34:50.222Z,97875.81
2024-01-15T03:37:23.259Z,97871.50
2024-01-15T03:39:58.088Z,97869.88
2024-01-15T03:42:31.033Z,97878.59
2024-01-15T03:45:04.166Z,97872.81
2024-01-15T03:47:36.977Z,97876.22
2024-01-15T03:50:10.799Z,97888.47
2024-01-15T03:52:43.667Z,97873.97
2024-01-15T03:55:17.930Z,97883.34
2024-01-15T03:57:50.833Z,97880.97
2024-01-15T04:00:23.721Z,97877.59
2024-01-15T04:02:56.535Z,97874.78
2024-01-15T04:05:29.391Z,97878.03
2024-01-15T04:08:02.328Z,97867.38
2024-01-15T04:10:36.748Z,97870.19
2024-01-15T04:13:09.548Z,97869.28
2024-01-15T04:15:42.522Z,97865.84
2024-01-15T04:18:15.473Z,97865.84
2024-01-15T04:20:48.312Z,97865.09
2024-01-15T04:23:21.175Z,97868.53
2024-01-15T04:25:55.346Z,97876.44
2024-01-15T04:28:28.220Z,97874.50
2024-01-15T04:31:01.115Z,97860.31
2024-01-15T04:33:34.164Z,97854.41
2024-01-15T04:36:08.935Z,97854.16
2024-01-15T04:38:41.769Z,97854.56
2024-01-15T04:41:16.532Z,97853.81
2024-01-15T04:43:49.444Z,97860.03
2024-01-15T04:46:22.281Z,97849.09
2024-01-15T04:48:55.235Z,97859.31
2024-01-15T04:51:28.202Z,97854.56
2024-01-15T04:54:01.188Z,97850.38
2024-01-15T04:56:35.338Z,97840.25
2024-01-15T04:59:08.101Z,97853.38
2024-01-15T05:01:40.938Z,97842.94
2024-01-15T05:04:13.997Z,97848.41
2024-01-15T05:06:46.875Z,97841.34
2024-01-15T05:09:19.930Z,97837.81
2024-01-15T05:11:54.154Z,97831.66
2024-01-15T05:14:34.260Z,97817.13
2024-01-15T05:17:10.557Z,97839.34
2024-01-15T05:19:44.326Z,97823.25
2024-01-15T05:22:17.435Z,97825.44
2024-01-15T05:24:50.404Z,97835.78
2024-01-15T05:27:24.667Z,97827.53
2024-01-15T05:29:57.496Z,97833.03
2024-01-15T05:32:30.643Z,97836.97
2024-01-15T05:35:03.786Z,97836.84
2024-01-15T05:37:36.624Z,97839.19
2024-01-15T05:40:10.516Z,97840.78
2024-01-15T05:42:45.127Z,97836.22
2024-01-15T05:45:18.607Z,97835.81
2024-01-15T05:47:51.796Z,97839.81
2024-01-15T05:50:24.713Z,97834.19
2024-01-15T05:52:57.792Z,97843.97
2024-01-15T05:55:30.707Z,97837.38
2024-01-15T05:58:05.114Z,97837.75
2024-01-15T06:00:39.523Z,97834.69
2024-01-15T06:03:12.664Z,97825.72
2024-01-15T06:05:45.765Z,97820.75
2024-01-15T06:08:18.570Z,97823.84
2024-01-15T06:10:51.327Z,97820.75
2024-01-15T06:13:25.511Z,97833.69
2024-01-15T06:15:58.486Z,97826.94
2024-01-15T06:18:31.313Z,97831.59
2024-01-15T06:21:04.430Z,97823.34
2024-01-15T06:23:37.336Z,97818.28
2024-01-15T06:26:10.631Z,97817.47
2024-01-15T06:28:44.753Z,97816.00
2024-01-15T06:31:17.793Z,97815.25
2024-01-15T06:33:50.954Z,97816.53
2024-01-15T06:36:23.922Z,97821.19
2024-01-15T06:38:57.192Z,97823.84
2024-01-15T06:41:29.938Z,97829.28
2024-01-15T06:44:04.107Z,97825.34
2024-01-15T06:46:37.021Z,97827.31
2024-01-15T06:49:09.860Z,97820.66
2024-01-15T06:51:43.522Z,97822.22
2024-01-15T06:54:16.991Z,97817.19
2024-01-15T06:56:49.941Z,97823.78
2024-01-15T06:59:24.110Z,97827.31
2024-01-15T07:01:57.297Z,97836.03
2024-01-15T07:04:30.237Z,97830.44
2024-01-15T07:07:03.064Z,97827.72
2024-01-15T07:09:35.962Z,97832.00
2024-01-15T07:12:08.990Z,97833.19
2024-01-15T07:14:43.186Z,97827.78
2024-01-15T07:17:18.587Z,97828.91
2024-01-15T07:19:51.408Z,97838.81
2024-01-15T07:22:24.466Z,97833.66
2024-01-15T07:24:57.367Z,97834.09
2024-01-15T07:27:30.254Z,97835.69
2024-01-15T07:30:06.518Z,97827.19
2024-01-15T07:32:39.714Z,97831.88
2024-01-15T07:35:12.631Z,97836.91
2024-01-15T07:37:45.401Z,97843.88
2024-01-15T07:40:18.332Z,97847.41
2024-01-15T07:42:51.168Z,97845.91
2024-01-15T07:45:25.525Z,97846.66
2024-01-15T07:47:58.428Z,97845.13
2024-01-15T07:50:31.287Z,97849.84
2024-01-15T07:53:05.121Z,97855.66
2024-01-15T07:55:38.703Z,97854.47
2024-01-15T07:58:16.208Z,97852.53
2024-01-15T08:00:51.497Z,97854.97
2024-01-15T08:03:24.454Z,97851.34
2024-01-15T08:05:58.791Z,97851.00
2024-01-15T08:08:31.668Z,97843.72
2024-01-15T08:11:04.892Z,97852.56
2024-01-15T08:13:37.669Z,97842.69
2024-01-15T08:16:12.046Z,97840.34
2024-01-15T08:18:45.418Z,97828.34
2024-01-15T08:21:18.366Z,97834.88
2024-01-15T08:23:51.244Z,97839.03
2024-01-15T08:26:24.114Z,97826.44
2024-01-15T08:28:57.028Z,97833.19
2024-01-15T08:31:31.702Z,97827.69
2024-01-15T08:34:04.714Z,97835.59
2024-01-15T08:36:37.665Z,97823.03
2024-01-15T08:39:11.242Z,97826.22
2024-01-15T08:41:44.052Z,97825.34
2024-01-15T08:44:17.701Z,97829.75
2024-01-15T08:46:51.981Z,97819.97
2024-01-15T08:49:24.874Z,97826.28
2024-01-15T08:52:04.414Z,97829.44
2024-01-15T08:54:39.376Z,97820.06
2024-01-15T08:57:12.836Z,97825.81
2024-01-15T08:59:46.346Z,97829.81
2024-01-15T09:02:20.536Z,97822.78
2024-01-15T09:04:53.540Z,97825.63
2024-01-15T09:07:28.036Z,97818.94
2024-01-15T09:10:01.022Z,97819.38
2024-01-15T09:12:33.889Z,97822.94
2024-01-15T09:15:07.500Z,97820.28
2024-01-15T09:17:41.792Z,97819.44
2024-01-15T09:20:14.780Z,97818.69
2024-01-15T09:22:47.544Z,97810.13
2024-01-15T09:25:20.572Z,97808.22
2024-01-15T09:27:53.895Z,97810.91
2024-01-15T09:30:27.149Z,97814.47
2024-01-15T09:33:01.475Z,97826.19
2024-01-15T09:35:35.104Z,97837.19
2024-01-15T09:38:08.078Z,97828.09
2024-01-15T09:40:45.155Z,97831.66
2024-01-15T09:43:19.183Z,97834.78
2024-01-15T09:45:53.108Z,97844.66
2024-01-15T09:48:27.586Z,97830.94
2024-01-15T09:51:01.009Z,97832.13
2024-01-15T09:53:35.032Z,97820.75
2024-01-15T09:56:08.380Z,97829.34
2024-01-15T09:58:42.860Z,97816.47
2024-01-15T10:01:19.073Z,97811.41
2024-01-15T10:03:54.270Z,97819.16
2024-01-15T10:06:29.759Z,97817.66
2024-01-15T10:09:04.514Z,97816.44
2024-01-15T10:11:38.098Z,97809.78
2024-01-15T10:14:13.471Z,97806.31
2024-01-15T10:16:46.449Z,97801.59
2024-01-15T10:19:20.713Z,97792.94
2024-01-15T10:21:53.958Z,97793.38
2024-01-15T10:24:27.043Z,97791.41
2024-01-15T10:27:07.546Z,97779.25
2024-01-15T10:29:40.650Z,97775.72
2024-01-15T10:32:13.859Z,97772.97
2024-01-15T10:34:48.188Z,97766.34
2024-01-15T10:37:21.275Z,97775.34
2024-01-15T10:39:54.912Z,97773.78
2024-01-15T10:42:27.847Z,97788.28
2024-01-15T10:45:00.843Z,97776.53
2024-01-15T10:47:34.227Z,97764.00
2024-01-15T10:50:10.534Z,97764.38
2024-01-15T10:52:44.190Z,97765.94
2024-01-15T10:55:19.851Z,97759.69
2024-01-15T10:57:54.264Z,97770.66
2024-01-15T11:00:27.682Z,97761.63
2024-01-15T11:03:03.353Z,97762.41
2024-01-15T11:05:39.719Z,97759.69
2024-01-15T11:08:13.475Z,97747.94
2024-01-15T11:10:49.968Z,97747.16
2024-01-15T11:13:27.229Z,97734.97
2024-01-15T11:16:03.783Z,97737.34
2024-01-15T11:18:41.692Z,97722.03
2024-01-15T11:21:27.343Z,97718.94
2024-01-15T11:24:01.613Z,97719.28
2024-01-15T11:26:37.998Z,97718.91
2024-01-15T11:29:13.168Z,97727.91
2024-01-15T11:32:01.719Z,97727.13
2024-01-15T11:34:55.103Z,97714.22
2024-01-15T11:37:30.483Z,97710.69
2024-01-15T11:40:06.589Z,97711.09
2024-01-15T11:42:40.469Z,97713.44
2024-01-15T11:45:13.546Z,97715.38
2024-01-15T11:48:25.071Z,97729.91
2024-01-15T11:51:02.362Z,97724.81
2024-01-15T11:53:46.130Z,97720.84
2024-01-15T11:56:20.135Z,97715.38
2024-01-15T11:58:53.028Z,97716.91
2024-01-15T12:01:26.950Z,97697.72
2024-01-15T12:04:00.730Z,97705.91
2024-01-15T12:06:33.725Z,97693.44
2024-01-15T12:09:10.458Z,97701.19
2024-01-15T12:11:52.765Z,97697.69
2024-01-15T12:14:28.058Z,97709.06
2024-01-15T12:17:03.723Z,97711.78
2024-01-15T12:19:39.911Z,97706.72
2024-01-15T12:22:13.295Z,97712.91
2024-01-15T12:24:48.739Z,97727.06
2024-01-15T12:27:22.481Z,97714.88
2024-01-15T12:29:55.680Z,97707.47
2024-01-15T12:32:28.611Z,97711.81
2024-01-15T12:35:04.501Z,97710.25
2024-01-15T12:37:38.134Z,97717.34
2024-01-15T12:40:13.300Z,97716.19
2024-01-15T12:42:46.256Z,97718.53
2024-01-15T12:45:20.227Z,97718.13
2024-01-15T12:47:53.501Z,97714.63
2024-01-15T12:50:28.115Z,97706.38
2024-01-15T12:53:01.338Z,97701.25
2024-01-15T12:55:36.393Z,97711.47
2024-01-15T12:58:09.758Z,97713.81
2024-01-15T13:00:42.901Z,97716.16
2024-01-15T13:03:15.996Z,97715.78
2024-01-15T13:05:50.129Z,97718.53
2024-01-15T13:08:24.990Z,97705.97
2024-01-15T13:10:59.343Z,97705.56
2024-01-15T13:13:35.566Z,97701.63
2024-01-15T13:16:09.283Z,97695.34
2024-01-15T13:18:42.764Z,97690.59
2024-01-15T13:21:15.896Z,97688.56
2024-01-15T13:23:48.814Z,97673.88
2024-01-15T13:26:23.126Z,97673.63
2024-01-15T13:28:55.914Z,97679.53
2024-01-15T13:31:29.243Z,97685.44
2024-01-15T13:34:02.254Z,97692.56
2024-01-15T13:37:55.603Z,97689.00
2024-01-15T13:40:30.564Z,97692.88
2024-01-15T13:43:08.136Z,97696.03
2024-01-15T13:45:41.063Z,97696.91
2024-01-15T13:48:14.011Z,97698.84
2024-01-15T13:50:47.451Z,97706.34
2024-01-15T13:53:21.210Z,97703.53
2024-01-15T13:55:54.064Z,97702.00
2024-01-15T13:58:28.192Z,97698.47
2024-01-15T14:01:01.427Z,97707.13
2024-01-15T14:03:34.956Z,97704.75
2024-01-15T14:06:09.958Z,97711.78
2024-01-15T14:08:43.017Z,97706.72
2024-01-15T14:11:15.810Z,97713.00
2024-01-15T14:13:50.925Z,97705.94
2024-01-15T14:16:26.069Z,97717.28
2024-01-15T14:18:59.365Z,97711.81
2024-01-15T14:21:32.877Z,97727.91
2024-01-15T14:24:06.918Z,97737.31
2024-01-15T14:26:40.380Z,97732.22
2024-01-15T14:29:14.728Z,97742.03
2024-01-15T14:31:47.938Z,97732.97
2024-01-15T14:34:23.501Z,97734.16
2024-01-15T14:36:56.727Z,97732.63
2024-01-15T14:39:29.822Z,97734.59
2024-01-15T14:42:02.646Z,97738.53
2024-01-15T14:44:39.404Z,97738.09
2024-01-15T14:47:13.736Z,97748.69
2024-01-15T14:49:46.624Z,97749.88
2024-01-15T14:52:19.634Z,97750.66
2024-01-15T14:54:52.546Z,97750.69
2024-01-15T14:57:25.452Z,97762.81
2024-01-15T14:59:59.818Z,97764.41
2024-01-15T15:02:33.284Z,97775.38
2024-01-15T15:05:06.971Z,97778.47
2024-01-15T15:07:40.007Z,97777.31
2024-01-15T15:10:13.341Z,97776.13
2024-01-15T15:12:46.309Z,97780.84
2024-01-15T15:15:21.862Z,97782.03
2024-01-15T15:17:56.044Z,97789.47
2024-01-15T15:20:29.022Z,97805.16
2024-01-15T15:23:01.950Z,97793.78
2024-01-15T15:25:34.710Z,97807.91
2024-01-15T15:28:08.302Z,97804.38
2024-01-15T15:30:42.842Z,97804.38
2024-01-15T15:33:17.050Z,97811.03
2024-01-15T15:35:52.260Z,97813.38
2024-01-15T15:38:25.120Z,97818.88
2024-01-15T15:40:58.136Z,97820.06
2024-01-15T15:43:31.916Z,97827.47
2024-01-15T15:46:06.406Z,97831.78
2024-01-15T15:48:39.385Z,97830.22
2024-01-15T15:51:12.679Z,97843.19
2024-01-15T15:53:45.480Z,97836.94
2024-01-15T15:56:18.375Z,97849.06
2024-01-15T15:58:51.197Z,97850.25
2024-01-15T16:01:25.601Z,97862.38
2024-01-15T16:03:58.702Z,97861.59
2024-01-15T16:06:31.595Z,97872.19
2024-01-15T16:09:04.992Z,97875.72
2024-01-15T16:11:37.870Z,97883.16
2024-01-15T16:14:10.812Z,97877.66
2024-01-15T16:23:12.468Z,97881.59
2024-01-15T16:23:26.296Z,97883.56
2024-01-15T16:23:42.078Z,97897.28
2024-01-15T16:25:24.423Z,97881.56
2024-01-15T16:28:00.844Z,97887.03
2024-01-15T16:30:41.962Z,97889.00
2024-01-15T16:33:19.835Z,97885.84
2024-01-15T16:35:53.186Z,97885.44
2024-01-15T16:38:26.066Z,97887.03
2024-01-15T16:40:59.047Z,97902.28
2024-01-15T16:43:31.922Z,97899.97
2024-01-15T16:46:04.818Z,97908.59
2024-01-15T16:48:39.787Z,97908.22
2024-01-15T16:51:13.726Z,97912.13
2024-01-15T16:53:46.549Z,97917.19
2024-01-15T16:56:19.361Z,97917.56
2024-01-15T16:58:52.869Z,97923.88
2024-01-15T17:01:26.629Z,97925.47
2024-01-15T17:04:00.816Z,97930.97
2024-01-15T17:06:33.769Z,97932.13
2024-01-15T17:09:06.800Z,97933.28
2024-01-15T17:11:39.706Z,97940.38
2024-01-15T17:14:12.598Z,97952.53
2024-01-15T17:16:47.494Z,97951.75
2024-01-15T17:19:21.734Z,97959.19
2024-01-15T17:21:54.984Z,97963.13
2024-01-15T17:24:27.800Z,97962.34
2024-01-15T17:27:00.623Z,97967.00
2024-01-15T17:29:33.485Z,97967.41
2024-01-15T17:32:07.587Z,97965.84
2024-01-15T17:34:41.779Z,97963.91
2024-01-15T17:37:14.784Z,97966.28
2024-01-15T17:39:47.897Z,97969.00
2024-01-15T17:42:21.060Z,97978.41
2024-01-15T17:44:53.840Z,97965.09
2024-01-15T17:47:27.042Z,97975.28
2024-01-15T17:50:01.352Z,97977.28
2024-01-15T17:52:34.199Z,97983.91
2024-01-15T17:55:07.761Z,97977.63
2024-01-15T17:57:40.714Z,97976.44
2024-01-15T18:00:15.721Z,97981.19
2024-01-15T18:02:48.615Z,97977.25
2024-01-15T18:05:22.879Z,97982.41
2024-01-15T18:07:55.851Z,97987.88
2024-01-15T18:10:28.838Z,97987.06
2024-01-15T18:13:01.993Z,97996.09
2024-01-15T18:15:37.513Z,97982.81
2024-01-15T18:18:10.736Z,97984.75
2024-01-15T18:21:08.996Z,97986.69
2024-01-15T18:23:53.014Z,97995.31
2024-01-15T18:26:25.786Z,97999.97
2024-01-15T18:28:58.734Z,97990.59
2024-01-15T18:31:31.656Z,98003.16
2024-01-15T18:34:04.654Z,98002.41
2024-01-15T18:36:38.917Z,98017.31
2024-01-15T18:39:11.752Z,98019.63
2024-01-15T18:41:44.807Z,98017.28
2024-01-15T18:44:18.149Z,98019.25
2024-01-15T18:46:50.972Z,98028.66
2024-01-15T18:49:24.365Z,98042.41
2024-01-15T18:51:58.855Z,98036.94
2024-01-15T18:54:48.345Z,98044.78
2024-01-15T18:57:21.451Z,98041.59
2024-01-15T18:59:54.315Z,98048.25
2024-01-15T19:02:33.450Z,98050.25
2024-01-15T19:05:07.293Z,98051.03
2024-01-15T19:07:41.908Z,98056.91
2024-01-15T19:10:17.045Z,98062.38
2024-01-15T19:12:50.953Z,98056.56
2024-01-15T19:15:23.737Z,98061.22
2024-01-15T19:17:56.719Z,98078.06
2024-01-15T19:20:29.919Z,98075.31
2024-01-15T19:23:05.846Z,98075.72
2024-01-15T19:25:38.723Z,98084.75
2024-01-15T19:28:11.742Z,98077.28
2024-01-15T19:30:44.716Z,98078.88
2024-01-15T19:33:18.659Z,98087.13
2024-01-15T19:35:51.746Z,98094.50
2024-01-15T19:38:29.456Z,98100.00
2024-01-15T19:41:04.169Z,98092.56
2024-01-15T19:43:38.627Z,98095.66
2024-01-15T19:46:11.803Z,98103.91
2024-01-15T19:48:46.132Z,98103.50
2024-01-15T19:51:19.048Z,98113.75
2024-01-15T19:53:53.234Z,98119.19
2024-01-15T19:56:26.074Z,98127.84
2024-01-15T19:58:59.011Z,98139.66
2024-01-15T20:01:34.361Z,98138.84
2024-01-15T20:04:07.212Z,98136.44
2024-01-15T20:06:40.288Z,98130.56
2024-01-15T20:09:14.651Z,98147.06
2024-01-15T20:11:47.921Z,98145.03
2024-01-15T20:14:21.665Z,98156.03
2024-01-15T20:17:02.043Z,98157.53
2024-01-15T20:19:41.774Z,98162.28
2024-01-15T20:22:14.936Z,98153.31
2024-01-15T20:24:49.360Z,98161.16
2024-01-15T20:27:22.290Z,98161.53
2024-01-15T20:29:55.053Z,98178.00
2024-01-15T20:32:28.128Z,98182.78
2024-01-15T20:35:01.379Z,98181.19
2024-01-15T20:37:34.314Z,98189.47
2024-01-15T20:40:10.526Z,98191.38
2024-01-15T20:42:44.184Z,98187.44
2024-01-15T20:45:17.007Z,98192.13
2024-01-15T20:47:51.998Z,98192.56
2024-01-15T20:50:28.461Z,98198.06
2024-01-15T20:53:02.161Z,98188.22
2024-01-15T20:55:37.385Z,98193.72
2024-01-15T20:58:10.483Z,98187.44
2024-01-15T21:00:43.382Z,98194.47
2024-01-15T21:03:16.343Z,98187.00
2024-01-15T21:05:49.495Z,98187.44
2024-01-15T21:08:22.536Z,98191.38
2024-01-15T21:10:56.670Z,98187.31
2024-01-15T21:13:29.420Z,98184.94
2024-01-15T21:16:02.360Z,98196.28
2024-01-15T21:18:35.298Z,98187.25
2024-01-15T21:21:08.197Z,98193.88
2024-01-15T21:23:41.638Z,98198.97
2024-01-15T21:26:16.148Z,98198.56
2024-01-15T21:28:49.625Z,98192.72
2024-01-15T21:31:22.440Z,98191.88
2024-01-15T21:33:55.427Z,98200.88
2024-01-15T21:36:28.257Z,98201.25
2024-01-15T21:39:01.154Z,98207.50
2024-01-15T21:41:35.638Z,98214.47
2024-01-15T21:44:08.745Z,98213.28
2024-01-15T21:46:40.613Z,98210.94
2024-01-15T21:49:13.554Z,98221.56
2024-01-15T21:51:46.488Z,98221.84
2024-01-15T21:54:19.330Z,98225.41
2024-01-15T21:56:53.414Z,98225.44
2024-01-15T21:59:27.385Z,98227.75
2024-01-15T22:02:09.303Z,98239.81
2024-01-15T22:04:42.167Z,98237.13
2024-01-15T22:07:14.914Z,98238.72
2024-01-15T22:09:47.969Z,98239.91
2024-01-15T22:12:22.563Z,98238.66
2024-01-15T22:14:56.461Z,98257.75
2024-01-15T22:17:29.988Z,98255.34
2024-01-15T22:20:03.327Z,98261.41
2024-01-15T22:22:36.659Z,98257.00
2024-01-15T22:25:10.377Z,98248.03
2024-01-15T22:27:44.508Z,98250.94
2024-01-15T22:30:17.422Z,98259.25
2024-01-15T22:32:50.525Z,98264.44
2024-01-15T22:35:23.660Z,98262.06
2024-01-15T22:37:56.580Z,98255.41
2024-01-15T22:40:29.538Z,98250.38
2024-01-15T22:43:03.973Z,98277.44
2024-01-15T22:45:37.049Z,98280.25
2024-01-15T22:48:10.432Z,98282.19
2024-01-15T22:50:43.594Z,98282.19
2024-01-15T22:53:16.513Z,98280.66
2024-01-15T22:55:49.413Z,98283.38
2024-01-15T22:58:23.544Z,98292.06
2024-01-15T23:00:56.366Z,98295.53
2024-01-15T23:03:29.316Z,98291.69
2024-01-15T23:06:02.081Z,98294.88
2024-01-15T23:08:34.889Z,98302.31
2024-01-15T23:11:11.311Z,98301.13
2024-01-15T23:13:45.576Z,98323.44
2024-01-15T23:16:18.398Z,98318.78
2024-01-15T23:18:51.214Z,98319.28
2024-01-15T23:21:25.615Z,98321.59
2024-01-15T23:24:01.256Z,98321.59
2024-01-15T23:26:34.193Z,98322.34
2024-01-15T23:29:08.461Z,98339.84
2024-01-15T23:31:41.998Z,98330.19
2024-01-15T23:34:14.937Z,98332.91
2024-01-15T23:36:47.932Z,98342.19
2024-01-15T23:39:22.653Z,98347.72
2024-01-15T23:41:57.141Z,98344.56
2024-01-15T23:44:31.614Z,98353.91
2024-01-15T23:47:04.615Z,98357.97
2024-01-15T23:49:38.014Z,98348.13
2024-01-15T23:52:11.058Z,98355.97
2024-01-15T23:54:51.758Z,98366.19
2024-01-15T23:57:24.555Z,98370.88
